MENU

POPULAR MANGA

Loading...
Mob Psycho 100 CHAPTER LIST
  • Mob Psycho 100

    Alternative : モブサイコ100 (Japanese); 灵能百分百 (Chinese); One Hundred Mob Psycho; OneHundred MobPsycho; Mob 100 (English)
  • Author(s) : One,
  • Status : Ongoing
  • Last updated : Dec-04-2017 21:20:02 PM
  • TransGroup :
  • View : 2,760,801
  • Genres : Action, Comedy, Psychological, School life, Shounen, Slice of life, Supernatural,
  • Rating :
  •   Mangakakalot.com rate : 4.85/ 5 - 85 votes

Mob Psycho 100 summary:

Kageyama Shigeo (a.k.a. "Mob") is a 8th grader with psychic abilities. He could bend spoons and lift objects with his mind from a young age, but he slowly began to withhold from using his abilities in public due to the negative attention he kept receiving. Now, the only thing he wants is to become friends with a girl in his class, Tsubomi. With his psychic "mentor" (who has no psychic powers), he continues his daily life, attempting to realize his purpose in life.
Chapter name View Time uploaded
Chapter 109 38,394 12-04 21:11
Chapter 101.1 23,767 10-07 16:52
Chapter 100.17 11,947 12-04 21:20
Chapter 100.16 7,537 12-04 21:18
Chapter 100.15 6,790 12-04 21:17
Chapter 100.14 6,565 12-04 21:15
Chapter 100.13 12,264 12-04 21:13
Chapter 100.12 10,021 12-04 21:13
Chapter 100.11 9,676 12-04 21:13
Chapter 100.10 8,354 12-04 21:13
Chapter 100.9 10,830 10-07 16:48
Chapter 100.8 10,114 10-07 16:47
Chapter 100.7 15,302 08-25 15:57
Chapter 100.6 21,839 07-31 01:47
Chapter 100.5 19,931 07-18 06:47
Chapter 100.4 20,760 07-03 04:50
Chapter 100.2 18,159 06-20 11:06
Chapter 100.1 27,055 06-09 15:34
Chapter 100 : Ch.99.4 23,842 05-31 04:13
Chapter 99.9 : Ch.99.3 14,819 05-30 21:23
Chapter 99.7 : Ch 99.1 Mob 18,514 05-08 21:16
Chapter 99.6 : Ch. 98.12 15,889 04-17 02:15
Chapter 99.5 : c.98k 15,403 04-07 04:45
Chapter 99.4 : Ch.98.10 15,352 04-01 01:15
Chapter 99.3 : ch98.9 14,812 03-26 21:22
Chapter 99.2 : Ch.98.8 13,807 03-26 21:22
Chapter 99.1 : Ch.98.7 16,056 03-06 01:50
Chapter 99 : Ch.98.6 19,690 02-26 23:20
Chapter 98.9 : c.98 Omakes 14,917 02-20 02:47
Chapter 98.8 : Ch.98.5 15,088 02-13 23:33
Chapter 98.7 : Ch.98.4 14,070 02-10 11:17
Chapter 98.6 : Ch.98.3 14,370 02-06 01:17
Chapter 98.5 : Ch.98.2 14,714 02-06 01:17
Chapter 98.3 : Ch.97.13 15,821 01-08 22:16
Chapter 98.2 : Ch.97.12 15,855 12-26 00:31
Chapter 98.1 : Ch.97.11 16,019 12-19 01:32
Chapter 98 : Ch.97.10 24,918 12-18 18:31
Chapter 97.9 14,591 12-03 00:52
Chapter 97.8 14,091 11-28 11:37
Chapter 97.7 11,377 11-19 13:52
Chapter 97.6 10,465 11-05 20:37
Chapter 97.5 10,265 10-28 22:42
Chapter 97.4 10,390 10-22 19:07
Chapter 97.3 : [Nerieru-Scans] 10,316 10-22 18:27
Chapter 97.2 10,090 10-08 09:11
Chapter 97.1 : Dimple is 11,392 10-02 11:11
Chapter 96.7 8,781 10-01 17:31
Chapter 96.6 8,854 09-10 06:06
Chapter 96.5 9,024 09-02 03:37
Chapter 96.4 9,063 08-27 15:49
Chapter 96.3 9,048 08-04 23:43
Chapter 96.2 9,029 07-28 22:43
Chapter 96.1 : Peace 9,518 07-22 02:18
Chapter 96 9,052 07-22 02:18
Chapter 95.4 8,798 07-14 19:53
Chapter 95.3 8,506 07-12 14:25
Chapter 95.2 9,239 07-02 21:48
Chapter 95.1 9,307 06-25 10:52
Chapter 94.2 9,621 06-04 16:31
Chapter 94.1 : Carried Away 10,548 05-22 23:38
Chapter 93.3 9,662 05-22 23:38
Chapter 93.2 10,064 05-22 23:38
Chapter 93.1 10,615 04-24 00:02
Chapter 92.3 10,147 04-09 13:36
Chapter 92.2 10,702 04-01 00:34
Chapter 91.6 : 90-11 24,907 02-22 03:39
Chapter 91.3 15,657 02-20 02:18
Chapter 91.2 16,001 02-12 01:25
Chapter 91.1 : 90-12 19,503 01-30 07:06
Chapter 91 : 90-10 18,829 01-22 06:12
Chapter 90.9 v2 14,571 01-22 06:12
Chapter 90.9 13,865 01-20 09:29
Chapter 90.8 14,608 01-20 09:29
Chapter 90.7 12,207 01-20 09:29
Chapter 90.6 12,532 01-20 09:29
Chapter 90.5 12,485 01-20 09:29
Chapter 90.4 12,079 01-20 09:29
Chapter 90.3 12,555 01-20 09:29
Chapter 90.2 12,905 01-20 09:29
Chapter 90 14,901 01-20 09:29
Chapter 89.4 11,148 01-20 09:29
Chapter 89.3 10,673 01-20 09:29
Chapter 89.2 11,070 01-20 09:29
Chapter 89.1 11,187 01-20 09:29
Chapter 88.3 10,909 01-20 09:29
Chapter 88.2 11,265 01-20 09:29
Chapter 88 11,492 01-20 09:29
Chapter 87.4 10,674 01-20 09:29
Chapter 87.3 10,564 01-20 09:29
Chapter 87.2 10,451 01-20 09:29
Chapter 87.1 10,949 01-20 09:29
Chapter 86.2 10,807 01-20 09:29
Chapter 86.1 10,864 01-20 09:29
Chapter 85.2 12,460 01-20 09:29
Chapter 84.2 11,368 01-20 09:29
Chapter 84.1 10,734 01-20 09:29
Chapter 83.2 10,875 01-20 09:29
Chapter 83.1 11,142 01-20 09:29
Chapter 82.2 11,018 01-20 09:29
Chapter 82 : Clash 12,039 01-20 09:29
Chapter 81.2 10,724 01-20 09:29
Chapter 81.1 11,238 01-20 09:29
Chapter 80.5 10,608 01-20 09:29
Chapter 80 : Inner Conflict 12,397 01-20 09:29
Chapter 79.2 11,055 01-20 09:29
Chapter 79.1 11,773 01-20 09:29
Chapter 78.5 : Read Online 10,537 01-20 09:29
Chapter 78.2 : Read Online 10,895 01-20 09:29
Chapter 78 : Gathering 11,633 01-20 09:29
Chapter 77.6 9,913 01-20 09:29
Chapter 77.5 10,689 01-20 09:29
Chapter 77 : Show It 11,799 01-20 09:29
Chapter 76 : Fire 11,621 01-20 09:29
Chapter 75 : Even So 11,423 01-20 09:29
Chapter 74.4 : Anthology 2 c.6 10,006 01-20 09:29
Chapter 74 : Forward 12,172 01-20 09:29
Chapter 73.5 : It's There 11,167 01-20 09:29
Chapter 73 : True Character 11,866 01-20 09:29
Chapter 72 : Finishing Off 11,690 01-20 09:29
Chapter 71.5 : Impulsive 11,463 01-20 09:29
Chapter 71 : Overhyped 11,782 01-20 09:29
Chapter 70 : The Lonely Whitey 11,817 01-20 09:29
Chapter 69 : He Doesn't Care 11,854 01-20 09:29
Chapter 68 12,371 01-20 09:29
Chapter 67.5 13,080 01-20 09:29
Chapter 67.3 : Rightness (3) 12,987 01-20 09:29
Chapter 67.2 : Rightness (2) 12,233 01-20 09:29
Chapter 67.1 : Rightness (1) 12,173 01-20 09:29
Chapter 66 : Voice 12,282 01-20 09:29
Chapter 65.5 11,104 01-20 09:29
Chapter 65.2 11,233 01-20 09:29
Chapter 65.1 : Friction 12,269 01-20 09:29
Chapter 65 12,696 01-20 09:29
Chapter 64.2 11,690 01-20 09:29
Chapter 64.1 : World 11,866 01-20 09:29
Chapter 63.3 11,748 01-20 09:29
Chapter 63.2 : Last Resort (2) 11,845 01-20 09:29
Chapter 63.1 : Last Resort 11,744 01-20 09:29
Chapter 62 : Morphing 11,878 01-20 09:29
Chapter 61.2 11,622 01-20 09:29
Chapter 61.1 : Evil Spirit 11,999 01-20 09:29
Chapter 60.5 11,105 01-20 09:29
Chapter 60 : True Identity 12,301 01-20 09:29
Chapter 59 : Big Mouth 11,440 01-20 09:29
Chapter 58.5 10,893 01-20 09:29
Chapter 58 : Creeping Danger 12,541 01-20 09:29
Chapter 57 : Roots 12,473 01-20 09:29
Chapter 56 : Solo Mission 12,426 01-20 09:29
Chapter 55 : Don't Know 12,869 01-20 09:29
Chapter 53 : Urban Legend 13,856 01-20 09:29
Chapter 52.5 12,621 01-20 09:29
Chapter 51.5 13,713 01-20 09:29
Chapter 50 : No Changes 15,003 01-20 09:29
Chapter 49 : Putting an End 11,793 01-20 09:29
Chapter 48 : Overwhelming 10,064 01-20 09:29
Chapter 47 : Rental 9,686 01-20 09:29
Chapter 46 : Master 9,559 01-20 09:29
Chapter 45 : Leader 7,558 01-20 09:29
Chapter 44 : Respect 6,904 01-20 09:29
Chapter 43 : Evil Aura 7,155 01-20 09:29
Chapter 42 : Phone Call 6,774 01-20 09:29
Chapter 41 : Who 6,432 01-20 09:29
Chapter 40 : Pyrokinetic 6,879 01-20 09:29
Chapter 39 : The Awakened 6,558 01-20 09:29
Chapter 37 : Team 6,448 01-20 09:29
Chapter 36 : Ways of Usage 6,354 01-20 09:29
Chapter 35 : Up Up 6,719 01-20 09:29
Chapter 34 : Claw 7,224 01-20 09:29
Chapter 33 : Ura vs Ura 7,172 01-20 09:29
Chapter 32 : Will to Destroy 6,394 01-20 09:29
Chapter 31 : Mature 6,574 01-20 09:29
Chapter 30 : Brotherly Love 6,769 01-20 09:29
Chapter 28 : Off-Tune 6,063 01-20 09:29
Chapter 27 : Discord 6,092 01-20 09:29
Chapter 26 : In High Spirits 6,442 01-20 09:29
Chapter 25 : O X Relationship 6,778 01-20 09:29
Chapter 24 : Hated 6,868 01-20 09:29
Chapter 22 : Awakening Lab 7,114 01-20 09:29
Chapter 20 : Student Council 7,217 01-20 09:29
Chapter 19 : Conclusion 7,180 01-20 09:29
Chapter 18 : Unidentifiable 7,260 01-20 09:29
Chapter 17.1 : The Fake Pot 7,228 01-20 09:29
Chapter 16 : Ochimusha 7,212 01-20 09:29
Chapter 14 : Same Kind 7,423 01-20 09:29
Chapter 11 : Idiot-Only Event 7,082 01-20 09:28
Chapter 10 : The Gifted One 7,365 01-20 09:28
Chapter 8 : Break Down 8,362 01-20 09:28
Chapter 7 : Sheeple 8,167 01-20 09:28
Chapter 6 : The Invitation 7,999 01-20 09:28
Chapter 4 : For Oneself 8,929 01-20 09:28
Chapter 2 : A Naive Question 14,395 01-20 09:28
Loading...